sensor_id;sensor_type;location;lat;lon;timestamp;pressure;altitude;pressure_sealevel;temperature;humidity
68226;BME280;55045;49.410;11.030;2023-04-07T00:02:01;98092.59;;;0.98;100.00
68226;BME280;55045;49.410;11.030;2023-04-07T00:05:04;98096.91;;;0.93;100.00
68226;BME280;55045;49.410;11.030;2023-04-07T00:08:09;98092.00;;;0.75;100.00
68226;BME280;55045;49.410;11.030;2023-04-07T00:11:12;98097.91;;;0.78;100.00
68226;BME280;55045;49.410;11.030;2023-04-07T00:14:15;98086.00;;;0.77;100.00
68226;BME280;55045;49.410;11.030;2023-04-07T00:17:19;98098.13;;;0.51;100.00
68226;BME280;55045;49.410;11.030;2023-04-07T00:20:22;98095.63;;;0.48;100.00
68226;BME280;55045;49.410;11.030;2023-04-07T00:23:27;98095.50;;;0.60;100.00
68226;BME280;55045;49.410;11.030;2023-04-07T00:26:30;98089.69;;;0.46;100.00
68226;BME280;55045;49.410;11.030;2023-04-07T00:29:33;98093.94;;;0.47;100.00
68226;BME280;55045;49.410;11.030;2023-04-07T00:32:37;98097.28;;;0.53;100.00
68226;BME280;55045;49.410;11.030;2023-04-07T00:35:40;98099.03;;;0.47;100.00
68226;BME280;55045;49.410;11.030;2023-04-07T00:38:44;98094.00;;;0.38;100.00
68226;BME280;55045;49.410;11.030;2023-04-07T00:41:48;98095.75;;;0.33;100.00
68226;BME280;55045;49.410;11.030;2023-04-07T00:44:52;98095.72;;;0.36;100.00
68226;BME280;55045;49.410;11.030;2023-04-07T00:47:55;98089.81;;;0.34;100.00
68226;BME280;55045;49.410;11.030;2023-04-07T00:50:59;98094.09;;;0.25;100.00
68226;BME280;55045;49.410;11.030;2023-04-07T00:54:04;98053.25;;;0.33;100.00
68226;BME280;55045;49.410;11.030;2023-04-07T00:57:08;98078.59;;;0.51;100.00
68226;BME280;55045;49.410;11.030;2023-04-07T01:00:11;98064.78;;;0.72;100.00
68226;BME280;55045;49.410;11.030;2023-04-07T01:03:29;98056.38;;;0.61;100.00
68226;BME280;55045;49.410;11.030;2023-04-07T01:06:37;98058.81;;;0.73;100.00
68226;BME280;55045;49.410;11.030;2023-04-07T01:09:46;98065.63;;;0.71;100.00
68226;BME280;55045;49.410;11.030;2023-04-07T01:12:54;98061.28;;;0.81;100.00
68226;BME280;55045;49.410;11.030;2023-04-07T01:16:03;98063.97;;;0.67;100.00
68226;BME280;55045;49.410;11.030;2023-04-07T01:19:15;98050.78;;;1.07;100.00
68226;BME280;55045;49.410;11.030;2023-04-07T01:22:32;98055.19;;;0.94;100.00
68226;BME280;55045;49.410;11.030;2023-04-07T01:25:53;98044.09;;;0.97;100.00
68226;BME280;55045;49.410;11.030;2023-04-07T01:29:29;98034.75;;;0.96;100.00
68226;BME280;55045;49.410;11.030;2023-04-07T01:32:35;98045.91;;;0.85;100.00
68226;BME280;55045;49.410;11.030;2023-04-07T01:35:40;98038.41;;;0.73;100.00
68226;BME280;55045;49.410;11.030;2023-04-07T01:38:45;98033.09;;;0.90;100.00
68226;BME280;55045;49.410;11.030;2023-04-07T01:41:49;98032.47;;;0.68;100.00
68226;BME280;55045;49.410;11.030;2023-04-07T01:44:56;98031.75;;;0.57;100.00
68226;BME280;55045;49.410;11.030;2023-04-07T01:48:00;98025.06;;;0.44;100.00
68226;BME280;55045;49.410;11.030;2023-04-07T01:51:04;98032.75;;;0.39;100.00
68226;BME280;55045;49.410;11.030;2023-04-07T01:54:08;98027.47;;;0.59;100.00
68226;BME280;55045;49.410;11.030;2023-04-07T01:57:12;98036.16;;;0.40;100.00
68226;BME280;55045;49.410;11.030;2023-04-07T02:00:17;98038.69;;;0.40;100.00
68226;BME280;55045;49.410;11.030;2023-04-07T02:03:29;98028.56;;;0.31;100.00
68226;BME280;55045;49.410;11.030;2023-04-07T02:06:38;98031.19;;;0.26;100.00
68226;BME280;55045;49.410;11.030;2023-04-07T02:09:46;98012.34;;;0.39;100.00
68226;BME280;55045;49.410;11.030;2023-04-07T02:12:50;98007.34;;;0.32;100.00
68226;BME280;55045;49.410;11.030;2023-04-07T02:15:56;98014.31;;;0.11;100.00
68226;BME280;55045;49.410;11.030;2023-04-07T02:19:00;98017.69;;;0.15;100.00
68226;BME280;55045;49.410;11.030;2023-04-07T02:22:04;98008.09;;;0.38;100.00
68226;BME280;55045;49.410;11.030;2023-04-07T02:25:23;98009.81;;;0.38;100.00
68226;BME280;55045;49.410;11.030;2023-04-07T02:28:28;98006.19;;;0.62;100.00
68226;BME280;55045;49.410;11.030;2023-04-07T02:31:34;98013.25;;;0.34;100.00
68226;BME280;55045;49.410;11.030;2023-04-07T02:34:37;98010.00;;;0.16;100.00
68226;BME280;55045;49.410;11.030;2023-04-07T02:37:41;98009.97;;;0.22;100.00
68226;BME280;55045;49.410;11.030;2023-04-07T02:40:45;98015.94;;;0.21;100.00
68226;BME280;55045;49.410;11.030;2023-04-07T02:43:48;98005.72;;;0.18;100.00
68226;BME280;55045;49.410;11.030;2023-04-07T02:46:52;98007.44;;;0.21;100.00
68226;BME280;55045;49.410;11.030;2023-04-07T02:49:57;97990.59;;;-0.02;100.00
68226;BME280;55045;49.410;11.030;2023-04-07T02:53:00;98027.06;;;0.11;100.00
68226;BME280;55045;49.410;11.030;2023-04-07T02:56:04;98006.78;;;-0.04;100.00
68226;BME280;55045;49.410;11.030;2023-04-07T02:59:07;97945.06;;;-0.44;100.00
68226;BME280;55045;49.410;11.030;2023-04-07T03:02:17;98015.16;;;0.09;100.00
68226;BME280;55045;49.410;11.030;2023-04-07T03:05:20;98015.00;;;0.32;100.00
68226;BME280;55045;49.410;11.030;2023-04-07T03:08:24;98017.63;;;0.19;100.00
68226;BME280;55045;49.410;11.030;2023-04-07T03:11:28;98013.31;;;0.27;100.00
68226;BME280;55045;49.410;11.030;2023-04-07T03:14:33;98006.41;;;0.39;100.00
68226;BME280;55045;49.410;11.030;2023-04-07T03:17:38;98009.03;;;0.33;100.00
68226;BME280;55045;49.410;11.030;2023-04-07T03:20:42;97998.84;;;0.31;100.00
68226;BME280;55045;49.410;11.030;2023-04-07T03:23:46;98001.47;;;0.20;100.00
68226;BME280;55045;49.410;11.030;2023-04-07T03:26:50;98002.97;;;0.43;100.00
68226;BME280;55045;49.410;11.030;2023-04-07T03:30:00;98001.28;;;0.42;100.00
68226;BME280;55045;49.410;11.030;2023-04-07T03:35:01;98002.97;;;0.40;100.00
68226;BME280;55045;49.410;11.030;2023-04-07T03:38:04;98013.28;;;0.31;100.00
68226;BME280;55045;49.410;11.030;2023-04-07T03:41:09;98004.66;;;0.45;100.00
68226;BME280;55045;49.410;11.030;2023-04-07T03:44:12;97991.66;;;0.67;100.00
68226;BME280;55045;49.410;11.030;2023-04-07T03:47:16;97989.16;;;0.61;100.00
68226;BME280;55045;49.410;11.030;2023-04-07T03:50:28;97998.63;;;0.52;100.00
68226;BME280;55045;49.410;11.030;2023-04-07T03:53:41;97995.19;;;0.55;100.00
68226;BME280;55045;49.410;11.030;2023-04-07T03:57:05;97991.84;;;0.48;100.00
68226;BME280;55045;49.410;11.030;2023-04-07T04:00:15;97985.78;;;0.62;100.00
68226;BME280;55045;49.410;11.030;2023-04-07T04:03:26;97994.13;;;0.74;100.00
68226;BME280;55045;49.410;11.030;2023-04-07T04:06:47;97999.16;;;0.80;100.00
68226;BME280;55045;49.410;11.030;2023-04-07T04:10:08;97996.56;;;0.85;100.00
68226;BME280;55045;49.410;11.030;2023-04-07T04:13:17;97988.97;;;0.79;100.00
68226;BME280;55045;49.410;11.030;2023-04-07T04:16:21;97993.22;;;0.80;100.00
68226;BME280;55045;49.410;11.030;2023-04-07T04:19:26;97987.44;;;0.61;100.00
68226;BME280;55045;49.410;11.030;2023-04-07T04:22:34;97996.75;;;0.68;100.00
68226;BME280;55045;49.410;11.030;2023-04-07T04:25:37;97995.06;;;0.67;100.00
68226;BME280;55045;49.410;11.030;2023-04-07T04:28:44;97991.72;;;0.64;100.00
68226;BME280;55045;49.410;11.030;2023-04-07T04:31:49;97984.75;;;0.76;100.00
68226;BME280;55045;49.410;11.030;2023-04-07T04:34:53;97978.97;;;0.59;100.00
68226;BME280;55045;49.410;11.030;2023-04-07T04:37:59;97979.53;;;0.85;100.00
68226;BME280;55045;49.410;11.030;2023-04-07T04:41:02;97978.81;;;0.74;100.00
68226;BME280;55045;49.410;11.030;2023-04-07T04:44:06;97990.78;;;0.69;100.00
68226;BME280;55045;49.410;11.030;2023-04-07T04:47:11;97994.16;;;0.71;100.00
68226;BME280;55045;49.410;11.030;2023-04-07T04:50:15;97986.44;;;0.77;100.00
68226;BME280;55045;49.410;11.030;2023-04-07T04:53:21;97985.53;;;0.81;100.00
68226;BME280;55045;49.410;11.030;2023-04-07T04:56:30;97989.69;;;0.90;100.00
68226;BME280;55045;49.410;11.030;2023-04-07T04:59:34;97990.41;;;1.00;100.00
68226;BME280;55045;49.410;11.030;2023-04-07T05:02:38;97990.50;;;0.94;100.00
68226;BME280;55045;49.410;11.030;2023-04-07T05:05:46;97980.34;;;0.88;100.00
68226;BME280;55045;49.410;11.030;2023-04-07T05:08:57;97989.50;;;1.05;100.00
68226;BME280;55045;49.410;11.030;2023-04-07T05:12:06;97990.25;;;1.12;100.00
68226;BME280;55045;49.410;11.030;2023-04-07T05:15:16;97980.06;;;1.10;100.00
68226;BME280;55045;49.410;11.030;2023-04-07T05:18:22;97980.00;;;1.17;100.00
68226;BME280;55045;49.410;11.030;2023-04-07T05:21:26;97985.88;;;1.25;100.00
68226;BME280;55045;49.410;11.030;2023-04-07T05:24:34;97990.91;;;1.28;100.00
68226;BME280;55045;49.410;11.030;2023-04-07T05:27:37;97987.41;;;1.36;100.00
68226;BME280;55045;49.410;11.030;2023-04-07T05:30:45;97988.25;;;1.37;100.00
68226;BME280;55045;49.410;11.030;2023-04-07T05:33:49;97984.75;;;1.42;100.00
68226;BME280;55045;49.410;11.030;2023-04-07T05:36:56;97985.53;;;1.48;100.00
68226;BME280;55045;49.410;11.030;2023-04-07T05:40:01;97991.63;;;1.39;100.00
68226;BME280;55045;49.410;11.030;2023-04-07T05:43:05;97992.25;;;1.56;100.00
68226;BME280;55045;49.410;11.030;2023-04-07T05:46:09;97984.50;;;1.61;100.00
68226;BME280;55045;49.410;11.030;2023-04-07T05:49:21;97984.34;;;1.70;100.00
68226;BME280;55045;49.410;11.030;2023-04-07T05:52:34;97979.56;;;2.02;100.00
68226;BME280;55045;49.410;11.030;2023-04-07T05:55:51;97987.41;;;1.93;100.00
68226;BME280;55045;49.410;11.030;2023-04-07T05:59:15;97981.28;;;2.02;100.00
68226;BME280;55045;49.410;11.030;2023-04-07T06:02:19;97987.06;;;2.13;100.00
68226;BME280;55045;49.410;11.030;2023-04-07T06:05:24;97983.63;;;2.16;100.00
68226;BME280;55045;49.410;11.030;2023-04-07T06:08:30;97983.25;;;2.39;100.00
68226;BME280;55045;49.410;11.030;2023-04-07T06:11:36;97977.84;;;2.52;100.00
68226;BME280;55045;49.410;11.030;2023-04-07T06:14:40;97976.28;;;2.90;100.00
68226;BME280;55045;49.410;11.030;2023-04-07T06:17:43;97981.66;;;3.20;100.00
68226;BME280;55045;49.410;11.030;2023-04-07T06:20:47;97979.72;;;3.31;100.00
68226;BME280;55045;49.410;11.030;2023-04-07T06:23:50;97982.00;;;3.43;100.00
68226;BME280;55045;49.410;11.030;2023-04-07T06:26:55;97987.03;;;3.85;100.00
68226;BME280;55045;49.410;11.030;2023-04-07T06:29:59;97975.16;;;4.16;100.00
68226;BME280;55045;49.410;11.030;2023-04-07T06:33:04;97977.59;;;4.22;100.00
68226;BME280;55045;49.410;11.030;2023-04-07T06:36:08;97982.31;;;4.38;100.00
68226;BME280;55045;49.410;11.030;2023-04-07T06:39:11;97988.34;;;4.37;100.00
68226;BME280;55045;49.410;11.030;2023-04-07T06:42:15;97982.94;;;4.78;100.00
68226;BME280;55045;49.410;11.030;2023-04-07T06:45:26;97982.31;;;4.38;100.00
68226;BME280;55045;49.410;11.030;2023-04-07T06:48:29;97976.56;;;4.62;100.00
68226;BME280;55045;49.410;11.030;2023-04-07T06:51:32;97977.78;;;4.80;100.00
68226;BME280;55045;49.410;11.030;2023-04-07T06:54:36;97905.22;;;4.41;100.00
68226;BME280;55045;49.410;11.030;2023-04-07T06:57:40;97967.88;;;4.97;100.00
68226;BME280;55045;49.410;11.030;2023-04-07T07:00:44;97965.84;;;5.08;100.00
68226;BME280;55045;49.410;11.030;2023-04-07T07:03:47;97969.63;;;5.54;100.00
68226;BME280;55045;49.410;11.030;2023-04-07T07:06:51;97968.31;;;5.69;100.00
68226;BME280;55045;49.410;11.030;2023-04-07T07:09:54;97967.84;;;5.56;100.00
68226;BME280;55045;49.410;11.030;2023-04-07T07:12:59;97956.25;;;5.99;100.00
68226;BME280;55045;49.410;11.030;2023-04-07T07:16:02;97963.13;;;5.70;100.00
68226;BME280;55045;49.410;11.030;2023-04-07T07:19:05;97957.50;;;6.14;100.00
68226;BME280;55045;49.410;11.030;2023-04-07T07:22:09;97966.97;;;6.12;100.00
68226;BME280;55045;49.410;11.030;2023-04-07T07:25:12;97960.94;;;6.13;100.00
68226;BME280;55045;49.410;11.030;2023-04-07T07:28:16;97960.91;;;6.39;100.00
68226;BME280;55045;49.410;11.030;2023-04-07T07:31:20;97972.28;;;6.58;100.00
68226;BME280;55045;49.410;11.030;2023-04-07T07:34:25;97966.94;;;7.11;100.00
68226;BME280;55045;49.410;11.030;2023-04-07T07:37:28;97961.78;;;7.11;100.00
68226;BME280;55045;49.410;11.030;2023-04-07T07:40:31;97954.81;;;7.13;100.00
68226;BME280;55045;49.410;11.030;2023-04-07T07:43:36;97960.59;;;7.43;100.00
68226;BME280;55045;49.410;11.030;2023-04-07T07:46:39;97965.16;;;7.37;100.00
68226;BME280;55045;49.410;11.030;2023-04-07T07:49:43;97964.00;;;7.44;100.00
68226;BME280;55045;49.410;11.030;2023-04-07T07:52:46;97963.38;;;7.83;99.92
68226;BME280;55045;49.410;11.030;2023-04-07T07:55:49;97944.88;;;7.71;98.40
68226;BME280;55045;49.410;11.030;2023-04-07T07:58:54;97965.44;;;7.29;100.00
68226;BME280;55045;49.410;11.030;2023-04-07T08:01:59;97959.47;;;7.50;100.00
68226;BME280;55045;49.410;11.030;2023-04-07T08:05:03;97954.94;;;7.34;100.00
68226;BME280;55045;49.410;11.030;2023-04-07T08:08:06;97968.09;;;7.71;100.00
68226;BME280;55045;49.410;11.030;2023-04-07T08:11:09;97963.94;;;8.11;96.68
68226;BME280;55045;49.410;11.030;2023-04-07T08:14:14;97960.66;;;7.86;93.83
68226;BME280;55045;49.410;11.030;2023-04-07T08:17:18;97962.88;;;7.95;95.22
68226;BME280;55045;49.410;11.030;2023-04-07T08:20:21;97959.34;;;7.75;99.43
68226;BME280;55045;49.410;11.030;2023-04-07T08:23:24;97948.28;;;7.94;98.69
68226;BME280;55045;49.410;11.030;2023-04-07T08:26:28;97944.47;;;8.45;93.15
68226;BME280;55045;49.410;11.030;2023-04-07T08:29:32;97954.06;;;8.21;93.55
68226;BME280;55045;49.410;11.030;2023-04-07T08:32:37;97957.06;;;8.32;91.73
68226;BME280;55045;49.410;11.030;2023-04-07T08:35:40;97953.94;;;8.24;93.09
68226;BME280;55045;49.410;11.030;2023-04-07T08:38:44;97954.25;;;8.38;94.71
68226;BME280;55045;49.410;11.030;2023-04-07T08:41:47;97951.19;;;8.28;94.09
68226;BME280;55045;49.410;11.030;2023-04-07T08:44:55;97949.25;;;8.74;93.32
68226;BME280;55045;49.410;11.030;2023-04-07T08:48:03;97948.88;;;8.63;93.26
68226;BME280;55045;49.410;11.030;2023-04-07T08:51:11;97948.81;;;8.44;93.06
68226;BME280;55045;49.410;11.030;2023-04-07T08:54:17;97951.88;;;8.93;93.40
68226;BME280;55045;49.410;11.030;2023-04-07T08:57:22;97951.00;;;8.74;95.66
68226;BME280;55045;49.410;11.030;2023-04-07T09:00:28;97953.72;;;8.50;91.67
68226;BME280;55045;49.410;11.030;2023-04-07T09:03:32;97952.56;;;8.97;91.44
68226;BME280;55045;49.410;11.030;2023-04-07T09:06:36;97953.97;;;9.04;89.53
68226;BME280;55045;49.410;11.030;2023-04-07T09:09:39;97958.13;;;8.87;91.60
68226;BME280;55045;49.410;11.030;2023-04-07T09:12:43;97958.13;;;8.69;91.24
68226;BME280;55045;49.410;11.030;2023-04-07T09:15:48;97959.56;;;8.94;89.68
68226;BME280;55045;49.410;11.030;2023-04-07T09:18:51;97865.38;;;8.61;89.18
68226;BME280;55045;49.410;11.030;2023-04-07T09:21:55;97930.75;;;8.83;87.27
68226;BME280;55045;49.410;11.030;2023-04-07T09:25:08;97947.16;;;9.21;88.25
68226;BME280;55045;49.410;11.030;2023-04-07T09:28:11;97949.16;;;9.52;87.35
68226;BME280;55045;49.410;11.030;2023-04-07T09:35:00;97953.66;;;9.30;86.80
68226;BME280;55045;49.410;11.030;2023-04-07T09:38:05;97955.53;;;9.27;88.08
68226;BME280;55045;49.410;11.030;2023-04-07T09:41:10;97928.88;;;9.24;86.50
68226;BME280;55045;49.410;11.030;2023-04-07T09:44:15;97947.84;;;9.25;89.24
68226;BME280;55045;49.410;11.030;2023-04-07T09:47:25;97940.78;;;9.84;86.48
68226;BME280;55045;49.410;11.030;2023-04-07T09:50:34;97939.28;;;9.97;84.19
68226;BME280;55045;49.410;11.030;2023-04-07T09:53:45;97929.25;;;9.72;84.35
68226;BME280;55045;49.410;11.030;2023-04-07T09:56:50;97935.63;;;9.65;85.90
68226;BME280;55045;49.410;11.030;2023-04-07T09:59:53;97936.63;;;9.43;83.66
68226;BME280;55045;49.410;11.030;2023-04-07T10:02:58;97938.03;;;9.50;86.43
68226;BME280;55045;49.410;11.030;2023-04-07T10:06:05;97938.72;;;9.73;85.93
68226;BME280;55045;49.410;11.030;2023-04-07T10:09:08;97932.69;;;9.72;83.90
68226;BME280;55045;49.410;11.030;2023-04-07T10:12:13;97932.78;;;9.52;83.88
68226;BME280;55045;49.410;11.030;2023-04-07T10:15:17;97930.88;;;9.56;82.05
68226;BME280;55045;49.410;11.030;2023-04-07T10:18:21;97934.16;;;9.59;83.89
68226;BME280;55045;49.410;11.030;2023-04-07T10:21:26;97933.28;;;10.14;83.17
68226;BME280;55045;49.410;11.030;2023-04-07T10:24:43;97929.59;;;10.00;84.79
68226;BME280;55045;49.410;11.030;2023-04-07T10:27:52;97932.94;;;9.85;84.40
68226;BME280;55045;49.410;11.030;2023-04-07T10:30:57;97925.00;;;10.24;83.36
68226;BME280;55045;49.410;11.030;2023-04-07T10:34:00;97920.56;;;10.44;79.24
68226;BME280;55045;49.410;11.030;2023-04-07T10:37:10;97921.63;;;10.39;80.00
68226;BME280;55045;49.410;11.030;2023-04-07T10:40:28;97927.84;;;10.70;77.10
68226;BME280;55045;49.410;11.030;2023-04-07T10:43:38;97845.09;;;10.32;77.63
68226;BME280;55045;49.410;11.030;2023-04-07T10:47:03;97932.38;;;11.15;72.32
68226;BME280;55045;49.410;11.030;2023-04-07T10:50:18;97927.56;;;10.59;73.62
68226;BME280;55045;49.410;11.030;2023-04-07T10:53:23;97932.03;;;10.73;78.39
68226;BME280;55045;49.410;11.030;2023-04-07T10:57:07;97923.66;;;11.16;72.08
68226;BME280;55045;49.410;11.030;2023-04-07T11:00:15;97929.13;;;11.59;73.16
68226;BME280;55045;49.410;11.030;2023-04-07T11:03:18;97924.41;;;11.18;70.48
68226;BME280;55045;49.410;11.030;2023-04-07T11:06:22;97931.31;;;10.86;72.17
68226;BME280;55045;49.410;11.030;2023-04-07T11:09:28;97918.56;;;11.31;72.21
68226;BME280;55045;49.410;11.030;2023-04-07T11:12:31;97915.19;;;11.92;73.30
68226;BME280;55045;49.410;11.030;2023-04-07T11:15:35;97912.63;;;11.60;74.71
68226;BME280;55045;49.410;11.030;2023-04-07T11:18:42;97906.81;;;11.71;74.77
68226;BME280;55045;49.410;11.030;2023-04-07T11:21:46;97901.28;;;11.93;77.10
68226;BME280;55045;49.410;11.030;2023-04-07T11:24:50;97900.97;;;11.67;75.87
68226;BME280;55045;49.410;11.030;2023-04-07T11:27:54;97903.03;;;12.22;77.19
68226;BME280;55045;49.410;11.030;2023-04-07T11:30:57;97900.31;;;11.79;77.72
68226;BME280;55045;49.410;11.030;2023-04-07T11:34:02;97896.25;;;11.90;78.05
68226;BME280;55045;49.410;11.030;2023-04-07T11:37:19;97897.63;;;11.65;76.85
68226;BME280;55045;49.410;11.030;2023-04-07T11:40:35;97893.38;;;11.94;77.72
68226;BME280;55045;49.410;11.030;2023-04-07T11:43:39;97891.28;;;12.01;74.72
68226;BME280;55045;49.410;11.030;2023-04-07T11:46:53;97890.56;;;11.67;76.49
68226;BME280;55045;49.410;11.030;2023-04-07T11:49:56;97883.06;;;12.08;78.14
68226;BME280;55045;49.410;11.030;2023-04-07T11:52:59;97896.84;;;11.79;76.78
68226;BME280;55045;49.410;11.030;2023-04-07T11:56:05;97891.50;;;11.82;78.19
68226;BME280;55045;49.410;11.030;2023-04-07T11:59:18;97872.97;;;12.32;75.02
68226;BME280;55045;49.410;11.030;2023-04-07T12:02:33;97890.34;;;12.02;77.09
68226;BME280;55045;49.410;11.030;2023-04-07T12:05:43;97888.50;;;12.62;76.23
68226;BME280;55045;49.410;11.030;2023-04-07T12:08:47;97885.59;;;11.78;76.37
68226;BME280;55045;49.410;11.030;2023-04-07T12:11:52;97885.19;;;11.70;76.02
68226;BME280;55045;49.410;11.030;2023-04-07T12:14:55;97875.66;;;12.17;74.43
68226;BME280;55045;49.410;11.030;2023-04-07T12:17:58;97888.91;;;12.12;77.92
68226;BME280;55045;49.410;11.030;2023-04-07T12:21:02;97886.28;;;12.12;72.98
68226;BME280;55045;49.410;11.030;2023-04-07T12:24:05;97880.22;;;12.27;71.29
68226;BME280;55045;49.410;11.030;2023-04-07T12:27:10;97891.72;;;11.77;75.76
68226;BME280;55045;49.410;11.030;2023-04-07T12:30:13;97889.16;;;12.52;74.09
68226;BME280;55045;49.410;11.030;2023-04-07T12:33:16;97888.34;;;12.07;70.45
68226;BME280;55045;49.410;11.030;2023-04-07T12:36:20;97888.97;;;12.55;72.03
68226;BME280;55045;49.410;11.030;2023-04-07T12:39:23;97819.81;;;12.08;66.92
68226;BME280;55045;49.410;11.030;2023-04-07T12:42:28;97884.09;;;12.20;69.89
68226;BME280;55045;49.410;11.030;2023-04-07T12:45:31;97884.00;;;11.92;71.22
68226;BME280;55045;49.410;11.030;2023-04-07T12:48:35;97876.47;;;12.17;73.20
68226;BME280;55045;49.410;11.030;2023-04-07T12:51:38;97883.59;;;12.58;71.11
68226;BME280;55045;49.410;11.030;2023-04-07T12:54:41;97883.94;;;12.66;73.22
68226;BME280;55045;49.410;11.030;2023-04-07T12:57:49;97878.84;;;12.64;70.71
68226;BME280;55045;49.410;11.030;2023-04-07T13:00:52;97884.50;;;11.98;68.91
68226;BME280;55045;49.410;11.030;2023-04-07T13:03:55;97888.13;;;12.40;70.00
68226;BME280;55045;49.410;11.030;2023-04-07T13:06:59;97876.44;;;12.47;73.93
68226;BME280;55045;49.410;11.030;2023-04-07T13:10:06;97883.25;;;12.20;74.93
68226;BME280;55045;49.410;11.030;2023-04-07T13:13:11;97879.69;;;12.36;69.87
68226;BME280;55045;49.410;11.030;2023-04-07T13:16:14;97880.91;;;12.74;69.44
68226;BME280;55045;49.410;11.030;2023-04-07T13:19:17;97875.31;;;12.94;72.51
68226;BME280;55045;49.410;11.030;2023-04-07T13:22:21;97876.72;;;12.57;77.26
68226;BME280;55045;49.410;11.030;2023-04-07T13:25:31;97883.13;;;13.08;75.75
68226;BME280;55045;49.410;11.030;2023-04-07T13:28:36;97876.88;;;12.96;76.06
68226;BME280;55045;49.410;11.030;2023-04-07T13:31:39;97878.09;;;13.05;78.46
68226;BME280;55045;49.410;11.030;2023-04-07T13:34:43;97878.09;;;12.62;78.83
68226;BME280;55045;49.410;11.030;2023-04-07T13:37:46;97882.47;;;12.48;80.74
68226;BME280;55045;49.410;11.030;2023-04-07T13:40:49;97878.41;;;12.58;81.57
68226;BME280;55045;49.410;11.030;2023-04-07T13:43:54;97880.81;;;12.47;82.01
68226;BME280;55045;49.410;11.030;2023-04-07T13:46:57;97873.75;;;12.77;80.99
68226;BME280;55045;49.410;11.030;2023-04-07T13:50:00;97870.50;;;12.59;82.84
68226;BME280;55045;49.410;11.030;2023-04-07T13:53:04;97873.50;;;12.23;83.19
68226;BME280;55045;49.410;11.030;2023-04-07T13:56:08;97875.69;;;12.01;86.33
68226;BME280;55045;49.410;11.030;2023-04-07T13:59:13;97869.28;;;11.61;87.49
68226;BME280;55045;49.410;11.030;2023-04-07T14:02:16;97869.91;;;11.50;88.37
68226;BME280;55045;49.410;11.030;2023-04-07T14:05:20;97799.00;;;10.86;90.72
68226;BME280;55045;49.410;11.030;2023-04-07T14:08:23;97877.28;;;11.26;91.66
68226;BME280;55045;49.410;11.030;2023-04-07T14:11:27;97889.81;;;11.34;92.96
68226;BME280;55045;49.410;11.030;2023-04-07T14:14:31;97888.72;;;11.53;91.93
68226;BME280;55045;49.410;11.030;2023-04-07T14:17:34;97878.66;;;11.63;91.62
68226;BME280;55045;49.410;11.030;2023-04-07T14:20:38;97879.16;;;11.70;90.80
68226;BME280;55045;49.410;11.030;2023-04-07T14:23:41;97882.34;;;11.91;90.18
68226;BME280;55045;49.410;11.030;2023-04-07T14:26:44;97874.56;;;12.05;89.64
68226;BME280;55045;49.410;11.030;2023-04-07T14:29:49;97871.09;;;12.34;88.70
68226;BME280;55045;49.410;11.030;2023-04-07T14:32:52;97874.75;;;12.46;86.86
68226;BME280;55045;49.410;11.030;2023-04-07T14:35:56;97871.56;;;12.27;88.82
68226;BME280;55045;49.410;11.030;2023-04-07T14:38:59;97876.84;;;11.95;87.99
68226;BME280;55045;49.410;11.030;2023-04-07T14:42:03;97866.72;;;12.06;88.95
68226;BME280;55045;49.410;11.030;2023-04-07T14:45:09;97875.03;;;12.42;91.15
68226;BME280;55045;49.410;11.030;2023-04-07T14:48:14;97869.66;;;12.15;87.77
68226;BME280;55045;49.410;11.030;2023-04-07T14:51:19;97873.50;;;12.09;85.97
68226;BME280;55045;49.410;11.030;2023-04-07T14:54:23;97868.72;;;12.01;87.05
68226;BME280;55045;49.410;11.030;2023-04-07T14:57:26;97876.06;;;11.63;87.07
68226;BME280;55045;49.410;11.030;2023-04-07T15:00:31;97851.63;;;11.51;87.61
68226;BME280;55045;49.410;11.030;2023-04-07T15:03:35;97882.59;;;11.70;88.46
68226;BME280;55045;49.410;11.030;2023-04-07T15:06:39;97885.06;;;11.42;84.64
68226;BME280;55045;49.410;11.030;2023-04-07T15:09:42;97882.31;;;11.29;86.84
68226;BME280;55045;49.410;11.030;2023-04-07T15:12:46;97887.91;;;11.21;87.03
68226;BME280;55045;49.410;11.030;2023-04-07T15:15:51;97892.94;;;11.24;88.57
68226;BME280;55045;49.410;11.030;2023-04-07T15:18:54;97885.97;;;11.57;88.02
68226;BME280;55045;49.410;11.030;2023-04-07T15:21:57;97886.06;;;11.39;86.68
68226;BME280;55045;49.410;11.030;2023-04-07T15:25:00;97873.59;;;11.46;88.22
68226;BME280;55045;49.410;11.030;2023-04-07T15:28:04;97893.03;;;11.39;90.32
68226;BME280;55045;49.410;11.030;2023-04-07T15:35:00;97893.78;;;11.57;91.26
68226;BME280;55045;49.410;11.030;2023-04-07T15:38:04;97891.25;;;11.23;91.30
68226;BME280;55045;49.410;11.030;2023-04-07T15:41:07;97894.44;;;11.29;92.00
68226;BME280;55045;49.410;11.030;2023-04-07T15:44:16;97900.81;;;11.54;93.92
68226;BME280;55045;49.410;11.030;2023-04-07T15:47:19;97898.97;;;11.25;91.19
68226;BME280;55045;49.410;11.030;2023-04-07T15:50:23;97897.13;;;11.11;91.84
68226;BME280;55045;49.410;11.030;2023-04-07T15:53:28;97889.00;;;11.33;91.96
68226;BME280;55045;49.410;11.030;2023-04-07T15:56:31;97895.78;;;11.36;94.25
68226;BME280;55045;49.410;11.030;2023-04-07T15:59:35;97897.22;;;11.25;92.49
68226;BME280;55045;49.410;11.030;2023-04-07T16:02:38;97899.13;;;11.22;91.50
68226;BME280;55045;49.410;11.030;2023-04-07T16:05:43;97897.94;;;11.12;89.86
68226;BME280;55045;49.410;11.030;2023-04-07T16:08:46;97900.97;;;11.04;89.50
68226;BME280;55045;49.410;11.030;2023-04-07T16:11:49;97898.56;;;11.17;89.97
68226;BME280;55045;49.410;11.030;2023-04-07T16:14:52;97899.63;;;11.13;88.48
68226;BME280;55045;49.410;11.030;2023-04-07T16:17:56;97887.22;;;11.02;89.00
68226;BME280;55045;49.410;11.030;2023-04-07T16:21:00;97897.47;;;11.05;88.98